sensor_id;sensor_type;location;lat;lon;timestamp;P1;durP1;ratioP1;P2;durP2;ratioP2
56005;SDS011;41888;44.696;10.522;2024-03-23T00:53:53;13.38;;;7.68;;
56005;SDS011;41888;44.696;10.522;2024-03-23T00:56:20;12.52;;;8.02;;
56005;SDS011;41888;44.696;10.522;2024-03-23T00:58:46;13.48;;;7.18;;
56005;SDS011;41888;44.696;10.522;2024-03-23T01:01:12;18.23;;;9.75;;
56005;SDS011;41888;44.696;10.522;2024-03-23T01:03:38;13.82;;;6.95;;
56005;SDS011;41888;44.696;10.522;2024-03-23T01:06:04;12.57;;;8.65;;
56005;SDS011;41888;44.696;10.522;2024-03-23T01:08:31;12.98;;;7.28;;
56005;SDS011;41888;44.696;10.522;2024-03-23T01:10:58;12.50;;;7.47;;
56005;SDS011;41888;44.696;10.522;2024-03-23T01:13:25;14.60;;;7.22;;
56005;SDS011;41888;44.696;10.522;2024-03-23T01:15:51;14.57;;;7.80;;
56005;SDS011;41888;44.696;10.522;2024-03-23T01:18:18;11.52;;;7.38;;
56005;SDS011;41888;44.696;10.522;2024-03-23T01:20:46;15.93;;;7.63;;
56005;SDS011;41888;44.696;10.522;2024-03-23T01:23:12;13.85;;;7.88;;
56005;SDS011;41888;44.696;10.522;2024-03-23T01:25:38;15.15;;;7.45;;
56005;SDS011;41888;44.696;10.522;2024-03-23T01:28:05;14.52;;;7.50;;
56005;SDS011;41888;44.696;10.522;2024-03-23T01:30:32;16.30;;;7.57;;
56005;SDS011;41888;44.696;10.522;2024-03-23T01:33:01;11.98;;;7.70;;
56005;SDS011;41888;44.696;10.522;2024-03-23T01:35:27;13.95;;;6.97;;
56005;SDS011;41888;44.696;10.522;2024-03-23T01:37:54;11.05;;;6.40;;
56005;SDS011;41888;44.696;10.522;2024-03-23T01:40:20;14.20;;;7.43;;
56005;SDS011;41888;44.696;10.522;2024-03-23T01:42:55;12.90;;;7.57;;
56005;SDS011;41888;44.696;10.522;2024-03-23T01:45:22;14.07;;;8.57;;
56005;SDS011;41888;44.696;10.522;2024-03-23T01:47:49;14.85;;;7.28;;
56005;SDS011;41888;44.696;10.522;2024-03-23T01:50:16;13.65;;;7.47;;
56005;SDS011;41888;44.696;10.522;2024-03-23T01:52:42;17.08;;;7.70;;
56005;SDS011;41888;44.696;10.522;2024-03-23T01:55:09;15.02;;;7.28;;
56005;SDS011;41888;44.696;10.522;2024-03-23T01:57:36;15.43;;;8.00;;
56005;SDS011;41888;44.696;10.522;2024-03-23T02:00:03;12.43;;;7.93;;
56005;SDS011;41888;44.696;10.522;2024-03-23T02:02:29;12.52;;;6.72;;
56005;SDS011;41888;44.696;10.522;2024-03-23T02:04:55;14.77;;;8.88;;
56005;SDS011;41888;44.696;10.522;2024-03-23T02:07:21;12.25;;;7.35;;
56005;SDS011;41888;44.696;10.522;2024-03-23T02:09:48;15.88;;;7.85;;
56005;SDS011;41888;44.696;10.522;2024-03-23T02:12:15;16.73;;;7.85;;
56005;SDS011;41888;44.696;10.522;2024-03-23T02:14:42;13.75;;;6.80;;
56005;SDS011;41888;44.696;10.522;2024-03-23T02:17:09;13.77;;;8.25;;
56005;SDS011;41888;44.696;10.522;2024-03-23T02:19:35;16.13;;;7.72;;
56005;SDS011;41888;44.696;10.522;2024-03-23T02:22:01;12.20;;;7.75;;
56005;SDS011;41888;44.696;10.522;2024-03-23T02:24:29;13.00;;;6.75;;
56005;SDS011;41888;44.696;10.522;2024-03-23T02:26:55;10.43;;;6.43;;
56005;SDS011;41888;44.696;10.522;2024-03-23T02:29:21;12.32;;;6.38;;
56005;SDS011;41888;44.696;10.522;2024-03-23T02:31:47;15.23;;;7.28;;
56005;SDS011;41888;44.696;10.522;2024-03-23T02:34:13;15.15;;;7.68;;
56005;SDS011;41888;44.696;10.522;2024-03-23T02:36:39;13.25;;;7.20;;
56005;SDS011;41888;44.696;10.522;2024-03-23T02:39:05;15.68;;;7.97;;
56005;SDS011;41888;44.696;10.522;2024-03-23T02:41:32;14.88;;;7.70;;
56005;SDS011;41888;44.696;10.522;2024-03-23T02:43:58;13.05;;;8.30;;
56005;SDS011;41888;44.696;10.522;2024-03-23T02:46:24;13.90;;;7.18;;
56005;SDS011;41888;44.696;10.522;2024-03-23T02:48:50;12.98;;;7.28;;
56005;SDS011;41888;44.696;10.522;2024-03-23T02:51:16;12.93;;;7.55;;
56005;SDS011;41888;44.696;10.522;2024-03-23T02:53:42;13.98;;;8.07;;
56005;SDS011;41888;44.696;10.522;2024-03-23T02:56:08;14.63;;;7.93;;
56005;SDS011;41888;44.696;10.522;2024-03-23T02:58:34;15.35;;;8.02;;
56005;SDS011;41888;44.696;10.522;2024-03-23T03:01:00;12.63;;;7.00;;
56005;SDS011;41888;44.696;10.522;2024-03-23T03:03:26;12.65;;;7.50;;
56005;SDS011;41888;44.696;10.522;2024-03-23T03:05:55;15.68;;;7.75;;
56005;SDS011;41888;44.696;10.522;2024-03-23T03:08:21;13.18;;;8.02;;
56005;SDS011;41888;44.696;10.522;2024-03-23T03:10:48;12.10;;;7.68;;
56005;SDS011;41888;44.696;10.522;2024-03-23T03:13:14;13.80;;;8.10;;
56005;SDS011;41888;44.696;10.522;2024-03-23T03:15:43;13.07;;;7.28;;
56005;SDS011;41888;44.696;10.522;2024-03-23T03:18:09;16.60;;;7.47;;
56005;SDS011;41888;44.696;10.522;2024-03-23T03:20:38;10.95;;;6.97;;
56005;SDS011;41888;44.696;10.522;2024-03-23T03:23:05;12.10;;;7.20;;
56005;SDS011;41888;44.696;10.522;2024-03-23T03:25:32;14.25;;;7.45;;
56005;SDS011;41888;44.696;10.522;2024-03-23T03:27:58;13.77;;;7.32;;
56005;SDS011;41888;44.696;10.522;2024-03-23T03:30:25;14.13;;;7.88;;
56005;SDS011;41888;44.696;10.522;2024-03-23T03:32:52;13.57;;;7.30;;
56005;SDS011;41888;44.696;10.522;2024-03-23T03:35:19;11.85;;;7.40;;
56005;SDS011;41888;44.696;10.522;2024-03-23T03:37:47;16.10;;;8.00;;
56005;SDS011;41888;44.696;10.522;2024-03-23T03:40:13;13.07;;;6.57;;
56005;SDS011;41888;44.696;10.522;2024-03-23T03:42:42;14.77;;;7.43;;
56005;SDS011;41888;44.696;10.522;2024-03-23T03:45:09;11.43;;;6.35;;
56005;SDS011;41888;44.696;10.522;2024-03-23T03:47:35;13.70;;;7.22;;
56005;SDS011;41888;44.696;10.522;2024-03-23T03:50:01;14.65;;;8.35;;
56005;SDS011;41888;44.696;10.522;2024-03-23T03:52:27;14.52;;;7.68;;
56005;SDS011;41888;44.696;10.522;2024-03-23T03:54:59;13.77;;;7.35;;
56005;SDS011;41888;44.696;10.522;2024-03-23T03:57:27;11.52;;;6.72;;
56005;SDS011;41888;44.696;10.522;2024-03-23T03:59:54;13.40;;;8.40;;
56005;SDS011;41888;44.696;10.522;2024-03-23T04:02:20;19.65;;;7.90;;
56005;SDS011;41888;44.696;10.522;2024-03-23T04:04:46;15.52;;;7.70;;
56005;SDS011;41888;44.696;10.522;2024-03-23T04:07:12;12.48;;;7.20;;
56005;SDS011;41888;44.696;10.522;2024-03-23T04:09:38;14.80;;;7.57;;
56005;SDS011;41888;44.696;10.522;2024-03-23T04:12:05;13.10;;;7.70;;
56005;SDS011;41888;44.696;10.522;2024-03-23T04:14:31;18.13;;;8.45;;
56005;SDS011;41888;44.696;10.522;2024-03-23T04:16:57;12.13;;;6.20;;
56005;SDS011;41888;44.696;10.522;2024-03-23T04:19:24;13.43;;;7.47;;
56005;SDS011;41888;44.696;10.522;2024-03-23T04:21:50;13.90;;;7.53;;
56005;SDS011;41888;44.696;10.522;2024-03-23T04:24:16;10.70;;;6.97;;
56005;SDS011;41888;44.696;10.522;2024-03-23T04:26:44;12.07;;;8.07;;
56005;SDS011;41888;44.696;10.522;2024-03-23T04:29:11;14.35;;;7.50;;
56005;SDS011;41888;44.696;10.522;2024-03-23T04:31:37;14.52;;;7.53;;
56005;SDS011;41888;44.696;10.522;2024-03-23T04:34:03;15.63;;;8.13;;
56005;SDS011;41888;44.696;10.522;2024-03-23T04:36:29;13.57;;;8.10;;
56005;SDS011;41888;44.696;10.522;2024-03-23T04:38:59;13.18;;;7.85;;
56005;SDS011;41888;44.696;10.522;2024-03-23T04:41:25;14.70;;;8.05;;
56005;SDS011;41888;44.696;10.522;2024-03-23T04:43:51;16.23;;;7.82;;
56005;SDS011;41888;44.696;10.522;2024-03-23T04:46:18;14.13;;;7.35;;
56005;SDS011;41888;44.696;10.522;2024-03-23T04:48:45;14.90;;;8.82;;
56005;SDS011;41888;44.696;10.522;2024-03-23T04:51:20;14.10;;;8.27;;
56005;SDS011;41888;44.696;10.522;2024-03-23T04:53:47;15.52;;;8.07;;
56005;SDS011;41888;44.696;10.522;2024-03-23T04:56:13;14.07;;;7.03;;
56005;SDS011;41888;44.696;10.522;2024-03-23T04:58:40;15.32;;;8.20;;
56005;SDS011;41888;44.696;10.522;2024-03-23T05:01:06;12.95;;;8.10;;
56005;SDS011;41888;44.696;10.522;2024-03-23T05:03:32;12.23;;;7.30;;
56005;SDS011;41888;44.696;10.522;2024-03-23T05:05:58;14.55;;;8.57;;
56005;SDS011;41888;44.696;10.522;2024-03-23T05:08:25;12.23;;;6.97;;
56005;SDS011;41888;44.696;10.522;2024-03-23T05:10:51;11.52;;;7.50;;
56005;SDS011;41888;44.696;10.522;2024-03-23T05:13:17;12.85;;;7.35;;
56005;SDS011;41888;44.696;10.522;2024-03-23T05:15:43;12.93;;;7.63;;
56005;SDS011;41888;44.696;10.522;2024-03-23T05:18:09;12.52;;;6.85;;
56005;SDS011;41888;44.696;10.522;2024-03-23T05:20:35;16.48;;;8.10;;
56005;SDS011;41888;44.696;10.522;2024-03-23T05:23:01;12.00;;;8.10;;
56005;SDS011;41888;44.696;10.522;2024-03-23T05:25:28;14.02;;;7.10;;
56005;SDS011;41888;44.696;10.522;2024-03-23T05:27:54;11.10;;;7.10;;
56005;SDS011;41888;44.696;10.522;2024-03-23T05:30:20;14.25;;;6.90;;
56005;SDS011;41888;44.696;10.522;2024-03-23T05:32:46;12.30;;;6.75;;
56005;SDS011;41888;44.696;10.522;2024-03-23T05:35:12;12.80;;;7.15;;
56005;SDS011;41888;44.696;10.522;2024-03-23T05:37:38;14.18;;;6.70;;
56005;SDS011;41888;44.696;10.522;2024-03-23T05:40:04;12.35;;;7.18;;
56005;SDS011;41888;44.696;10.522;2024-03-23T05:42:33;10.93;;;7.10;;
56005;SDS011;41888;44.696;10.522;2024-03-23T05:44:59;11.60;;;7.20;;
56005;SDS011;41888;44.696;10.522;2024-03-23T05:47:25;10.95;;;6.25;;
56005;SDS011;41888;44.696;10.522;2024-03-23T05:49:51;9.05;;;5.88;;
56005;SDS011;41888;44.696;10.522;2024-03-23T05:52:17;10.18;;;6.00;;
56005;SDS011;41888;44.696;10.522;2024-03-23T05:54:45;11.10;;;5.57;;
56005;SDS011;41888;44.696;10.522;2024-03-23T05:57:12;13.85;;;5.72;;
56005;SDS011;41888;44.696;10.522;2024-03-23T05:59:38;9.95;;;5.70;;
56005;SDS011;41888;44.696;10.522;2024-03-23T06:02:04;9.93;;;5.70;;
56005;SDS011;41888;44.696;10.522;2024-03-23T06:04:31;11.55;;;5.47;;
56005;SDS011;41888;44.696;10.522;2024-03-23T06:06:57;8.85;;;5.50;;
56005;SDS011;41888;44.696;10.522;2024-03-23T06:09:23;10.02;;;4.57;;
56005;SDS011;41888;44.696;10.522;2024-03-23T06:11:49;9.25;;;4.57;;
56005;SDS011;41888;44.696;10.522;2024-03-23T06:14:15;8.93;;;5.35;;
56005;SDS011;41888;44.696;10.522;2024-03-23T06:16:41;10.05;;;4.97;;
56005;SDS011;41888;44.696;10.522;2024-03-23T06:19:07;8.82;;;4.32;;
56005;SDS011;41888;44.696;10.522;2024-03-23T06:21:33;10.45;;;5.15;;
56005;SDS011;41888;44.696;10.522;2024-03-23T06:23:59;7.20;;;4.68;;
56005;SDS011;41888;44.696;10.522;2024-03-23T06:26:25;10.20;;;5.88;;
56005;SDS011;41888;44.696;10.522;2024-03-23T06:28:51;8.38;;;4.88;;
56005;SDS011;41888;44.696;10.522;2024-03-23T06:31:18;9.43;;;4.35;;
56005;SDS011;41888;44.696;10.522;2024-03-23T06:33:44;8.00;;;4.35;;
56005;SDS011;41888;44.696;10.522;2024-03-23T06:36:10;7.78;;;3.92;;
56005;SDS011;41888;44.696;10.522;2024-03-23T06:38:37;6.95;;;4.43;;
56005;SDS011;41888;44.696;10.522;2024-03-23T06:41:03;11.25;;;5.18;;
56005;SDS011;41888;44.696;10.522;2024-03-23T06:43:30;6.03;;;3.88;;
56005;SDS011;41888;44.696;10.522;2024-03-23T06:45:56;10.43;;;4.72;;
56005;SDS011;41888;44.696;10.522;2024-03-23T06:48:22;8.77;;;4.25;;
56005;SDS011;41888;44.696;10.522;2024-03-23T06:50:49;6.75;;;4.43;;
56005;SDS011;41888;44.696;10.522;2024-03-23T06:53:20;8.30;;;5.00;;
56005;SDS011;41888;44.696;10.522;2024-03-23T06:55:49;8.45;;;4.07;;
56005;SDS011;41888;44.696;10.522;2024-03-23T06:58:17;10.15;;;3.95;;
56005;SDS011;41888;44.696;10.522;2024-03-23T07:00:47;8.68;;;5.18;;
56005;SDS011;41888;44.696;10.522;2024-03-23T07:03:13;8.55;;;4.55;;
56005;SDS011;41888;44.696;10.522;2024-03-23T07:05:40;6.00;;;3.72;;
56005;SDS011;41888;44.696;10.522;2024-03-23T07:08:07;6.97;;;4.20;;
56005;SDS011;41888;44.696;10.522;2024-03-23T07:10:33;8.70;;;4.82;;
56005;SDS011;41888;44.696;10.522;2024-03-23T07:13:00;7.57;;;3.80;;
56005;SDS011;41888;44.696;10.522;2024-03-23T07:15:26;9.10;;;5.28;;
56005;SDS011;41888;44.696;10.522;2024-03-23T07:17:52;9.65;;;5.38;;
56005;SDS011;41888;44.696;10.522;2024-03-23T07:20:18;6.38;;;3.90;;
56005;SDS011;41888;44.696;10.522;2024-03-23T07:22:45;8.35;;;4.97;;
56005;SDS011;41888;44.696;10.522;2024-03-23T07:25:12;12.70;;;6.00;;
56005;SDS011;41888;44.696;10.522;2024-03-23T07:27:38;10.85;;;5.75;;
56005;SDS011;41888;44.696;10.522;2024-03-23T07:30:05;12.07;;;5.88;;
56005;SDS011;41888;44.696;10.522;2024-03-23T07:32:32;12.52;;;6.28;;
56005;SDS011;41888;44.696;10.522;2024-03-23T07:34:58;11.85;;;6.68;;
56005;SDS011;41888;44.696;10.522;2024-03-23T07:37:24;12.82;;;6.03;;
56005;SDS011;41888;44.696;10.522;2024-03-23T07:39:50;9.27;;;5.38;;
56005;SDS011;41888;44.696;10.522;2024-03-23T07:42:16;12.63;;;6.85;;
56005;SDS011;41888;44.696;10.522;2024-03-23T07:44:43;11.15;;;6.78;;
56005;SDS011;41888;44.696;10.522;2024-03-23T07:47:09;10.18;;;6.28;;
56005;SDS011;41888;44.696;10.522;2024-03-23T07:49:35;17.15;;;6.30;;
56005;SDS011;41888;44.696;10.522;2024-03-23T07:52:01;11.88;;;6.60;;
56005;SDS011;41888;44.696;10.522;2024-03-23T07:54:27;11.93;;;6.00;;
56005;SDS011;41888;44.696;10.522;2024-03-23T07:56:53;15.48;;;6.95;;
56005;SDS011;41888;44.696;10.522;2024-03-23T07:59:19;10.60;;;5.68;;
56005;SDS011;41888;44.696;10.522;2024-03-23T08:01:45;9.07;;;5.40;;
56005;SDS011;41888;44.696;10.522;2024-03-23T08:04:11;12.68;;;6.32;;
56005;SDS011;41888;44.696;10.522;2024-03-23T08:06:37;12.18;;;6.20;;
56005;SDS011;41888;44.696;10.522;2024-03-23T08:09:04;12.23;;;5.85;;
56005;SDS011;41888;44.696;10.522;2024-03-23T08:11:31;12.15;;;6.00;;
56005;SDS011;41888;44.696;10.522;2024-03-23T08:14:01;12.75;;;6.82;;
56005;SDS011;41888;44.696;10.522;2024-03-23T08:16:27;8.63;;;5.88;;
56005;SDS011;41888;44.696;10.522;2024-03-23T08:18:53;14.60;;;6.47;;
56005;SDS011;41888;44.696;10.522;2024-03-23T08:21:23;10.18;;;6.65;;
56005;SDS011;41888;44.696;10.522;2024-03-23T08:23:50;12.82;;;7.10;;
56005;SDS011;41888;44.696;10.522;2024-03-23T08:26:16;10.20;;;5.88;;
56005;SDS011;41888;44.696;10.522;2024-03-23T08:28:43;13.57;;;6.78;;
56005;SDS011;41888;44.696;10.522;2024-03-23T08:31:09;12.40;;;6.85;;
56005;SDS011;41888;44.696;10.522;2024-03-23T08:33:37;9.50;;;6.45;;
56005;SDS011;41888;44.696;10.522;2024-03-23T08:36:07;11.60;;;6.45;;
56005;SDS011;41888;44.696;10.522;2024-03-23T08:38:34;8.77;;;5.28;;
56005;SDS011;41888;44.696;10.522;2024-03-23T08:41:01;10.93;;;4.97;;
56005;SDS011;41888;44.696;10.522;2024-03-23T08:43:38;10.25;;;4.72;;
56005;SDS011;41888;44.696;10.522;2024-03-23T08:46:11;10.07;;;4.80;;
56005;SDS011;41888;44.696;10.522;2024-03-23T08:48:41;8.25;;;4.97;;
56005;SDS011;41888;44.696;10.522;2024-03-23T08:51:09;8.27;;;4.30;;
56005;SDS011;41888;44.696;10.522;2024-03-23T08:53:36;7.55;;;5.15;;
56005;SDS011;41888;44.696;10.522;2024-03-23T08:56:03;12.52;;;5.82;;
56005;SDS011;41888;44.696;10.522;2024-03-23T08:58:31;8.68;;;4.70;;
56005;SDS011;41888;44.696;10.522;2024-03-23T09:01:08;7.15;;;4.60;;
56005;SDS011;41888;44.696;10.522;2024-03-23T09:03:36;6.20;;;4.10;;
56005;SDS011;41888;44.696;10.522;2024-03-23T09:06:06;8.70;;;4.90;;
56005;SDS011;41888;44.696;10.522;2024-03-23T09:08:33;8.80;;;3.55;;
56005;SDS011;41888;44.696;10.522;2024-03-23T09:11:03;7.13;;;4.50;;
56005;SDS011;41888;44.696;10.522;2024-03-23T09:13:31;10.40;;;4.63;;
56005;SDS011;41888;44.696;10.522;2024-03-23T09:15:58;10.02;;;4.65;;
56005;SDS011;41888;44.696;10.522;2024-03-23T09:18:25;9.55;;;4.70;;
56005;SDS011;41888;44.696;10.522;2024-03-23T09:20:51;9.10;;;5.30;;
56005;SDS011;41888;44.696;10.522;2024-03-23T09:23:20;10.82;;;5.32;;
56005;SDS011;41888;44.696;10.522;2024-03-23T09:25:46;6.97;;;4.88;;
56005;SDS011;41888;44.696;10.522;2024-03-23T09:28:12;9.88;;;5.07;;
56005;SDS011;41888;44.696;10.522;2024-03-23T09:30:38;7.72;;;4.30;;
56005;SDS011;41888;44.696;10.522;2024-03-23T09:33:07;12.25;;;4.97;;
56005;SDS011;41888;44.696;10.522;2024-03-23T09:35:38;6.75;;;4.93;;
56005;SDS011;41888;44.696;10.522;2024-03-23T09:38:05;8.77;;;5.25;;
56005;SDS011;41888;44.696;10.522;2024-03-23T09:40:34;9.50;;;4.47;;
56005;SDS011;41888;44.696;10.522;2024-03-23T09:43:07;6.03;;;3.95;;
56005;SDS011;41888;44.696;10.522;2024-03-23T09:45:35;8.98;;;3.35;;
56005;SDS011;41888;44.696;10.522;2024-03-23T09:48:06;5.25;;;2.75;;
56005;SDS011;41888;44.696;10.522;2024-03-23T09:50:35;5.38;;;2.67;;
56005;SDS011;41888;44.696;10.522;2024-03-23T09:53:08;5.53;;;2.00;;
56005;SDS011;41888;44.696;10.522;2024-03-23T09:55:39;4.15;;;2.30;;
56005;SDS011;41888;44.696;10.522;2024-03-23T09:58:07;4.88;;;1.90;;
56005;SDS011;41888;44.696;10.522;2024-03-23T10:00:37;8.35;;;2.17;;
56005;SDS011;41888;44.696;10.522;2024-03-23T10:03:03;4.45;;;2.00;;
56005;SDS011;41888;44.696;10.522;2024-03-23T10:05:31;7.95;;;2.33;;
56005;SDS011;41888;44.696;10.522;2024-03-23T10:10:39;5.30;;;2.65;;
56005;SDS011;41888;44.696;10.522;2024-03-23T10:13:06;8.13;;;4.10;;
56005;SDS011;41888;44.696;10.522;2024-03-23T10:15:35;8.40;;;5.53;;
56005;SDS011;41888;44.696;10.522;2024-03-23T10:18:20;11.65;;;6.75;;
56005;SDS011;41888;44.696;10.522;2024-03-23T10:21:09;14.80;;;8.77;;
56005;SDS011;41888;44.696;10.522;2024-03-23T10:23:36;17.17;;;9.05;;
56005;SDS011;41888;44.696;10.522;2024-03-23T10:31:32;19.08;;;11.52;;
56005;SDS011;41888;44.696;10.522;2024-03-23T10:34:02;17.08;;;10.48;;
56005;SDS011;41888;44.696;10.522;2024-03-23T10:36:29;18.75;;;12.25;;
56005;SDS011;41888;44.696;10.522;2024-03-23T10:38:55;20.33;;;13.35;;
56005;SDS011;41888;44.696;10.522;2024-03-23T10:41:28;20.58;;;12.50;;
56005;SDS011;41888;44.696;10.522;2024-03-23T10:43:56;22.67;;;13.68;;
56005;SDS011;41888;44.696;10.522;2024-03-23T10:46:24;20.55;;;12.77;;
56005;SDS011;41888;44.696;10.522;2024-03-23T10:48:51;25.15;;;12.90;;
56005;SDS011;41888;44.696;10.522;2024-03-23T10:51:17;22.45;;;13.23;;
56005;SDS011;41888;44.696;10.522;2024-03-23T10:53:43;21.67;;;13.23;;
56005;SDS011;41888;44.696;10.522;2024-03-23T10:56:11;27.63;;;14.27;;
56005;SDS011;41888;44.696;10.522;2024-03-23T10:58:39;25.13;;;13.98;;
56005;SDS011;41888;44.696;10.522;2024-03-23T11:01:10;23.90;;;14.85;;
56005;SDS011;41888;44.696;10.522;2024-03-23T11:03:37;28.25;;;16.13;;
56005;SDS011;41888;44.696;10.522;2024-03-23T11:06:09;23.75;;;14.80;;
56005;SDS011;41888;44.696;10.522;2024-03-23T11:08:36;25.88;;;14.93;;
56005;SDS011;41888;44.696;10.522;2024-03-23T11:11:21;29.20;;;15.98;;
56005;SDS011;41888;44.696;10.522;2024-03-23T11:13:50;26.48;;;15.40;;
56005;SDS011;41888;44.696;10.522;2024-03-23T11:16:24;27.23;;;16.45;;
56005;SDS011;41888;44.696;10.522;2024-03-23T11:22:01;23.75;;;12.68;;
56005;SDS011;41888;44.696;10.522;2024-03-23T11:24:31;21.98;;;13.05;;
56005;SDS011;41888;44.696;10.522;2024-03-23T11:26:57;18.75;;;10.93;;
56005;SDS011;41888;44.696;10.522;2024-03-23T11:29:26;20.65;;;12.10;;
56005;SDS011;41888;44.696;10.522;2024-03-23T11:31:54;20.05;;;10.48;;
56005;SDS011;41888;44.696;10.522;2024-03-23T11:34:21;15.55;;;9.45;;
56005;SDS011;41888;44.696;10.522;2024-03-23T11:36:47;17.85;;;9.98;;
56005;SDS011;41888;44.696;10.522;2024-03-23T11:39:16;16.60;;;9.23;;
56005;SDS011;41888;44.696;10.522;2024-03-23T11:41:53;12.80;;;8.90;;
56005;SDS011;41888;44.696;10.522;2024-03-23T11:44:22;18.08;;;9.05;;
56005;SDS011;41888;44.696;10.522;2024-03-23T11:46:50;14.40;;;8.18;;
56005;SDS011;41888;44.696;10.522;2024-03-23T11:51:49;8.70;;;4.78;;
56005;SDS011;41888;44.696;10.522;2024-03-23T11:54:16;7.47;;;4.10;;
56005;SDS011;41888;44.696;10.522;2024-03-23T11:56:55;5.00;;;3.33;;
56005;SDS011;41888;44.696;10.522;2024-03-23T12:01:57;5.47;;;2.80;;
56005;SDS011;41888;44.696;10.522;2024-03-23T12:04:27;6.05;;;3.22;;
56005;SDS011;41888;44.696;10.522;2024-03-23T12:09:39;4.30;;;1.77;;
56005;SDS011;41888;44.696;10.522;2024-03-23T12:12:07;8.05;;;2.28;;
56005;SDS011;41888;44.696;10.522;2024-03-23T12:14:41;6.57;;;2.00;;
56005;SDS011;41888;44.696;10.522;2024-03-23T12:17:12;4.53;;;1.77;;
56005;SDS011;41888;44.696;10.522;2024-03-23T12:19:39;6.22;;;2.00;;
56005;SDS011;41888;44.696;10.522;2024-03-23T12:22:09;4.68;;;2.38;;
56005;SDS011;41888;44.696;10.522;2024-03-23T12:24:36;8.23;;;2.03;;
56005;SDS011;41888;44.696;10.522;2024-03-23T12:27:04;3.25;;;1.67;;
56005;SDS011;41888;44.696;10.522;2024-03-23T12:29:34;4.40;;;2.20;;
56005;SDS011;41888;44.696;10.522;2024-03-23T12:32:00;8.60;;;2.35;;
56005;SDS011;41888;44.696;10.522;2024-03-23T12:34:27;4.50;;;2.22;;
56005;SDS011;41888;44.696;10.522;2024-03-23T12:36:55;5.57;;;2.10;;
56005;SDS011;41888;44.696;10.522;2024-03-23T12:39:21;4.93;;;1.52;;
56005;SDS011;41888;44.696;10.522;2024-03-23T12:41:48;5.93;;;2.10;;
56005;SDS011;41888;44.696;10.522;2024-03-23T12:44:15;4.88;;;1.70;;
56005;SDS011;41888;44.696;10.522;2024-03-23T12:46:41;5.13;;;2.15;;
56005;SDS011;41888;44.696;10.522;2024-03-23T12:49:08;4.38;;;1.60;;
56005;SDS011;41888;44.696;10.522;2024-03-23T12:51:34;3.75;;;1.70;;
56005;SDS011;41888;44.696;10.522;2024-03-23T12:54:00;3.42;;;1.42;;
56005;SDS011;41888;44.696;10.522;2024-03-23T12:56:26;3.30;;;1.40;;
56005;SDS011;41888;44.696;10.522;2024-03-23T12:58:53;4.82;;;1.83;;
56005;SDS011;41888;44.696;10.522;2024-03-23T13:01:21;3.22;;;1.48;;
56005;SDS011;41888;44.696;10.522;2024-03-23T13:03:48;5.25;;;1.90;;
56005;SDS011;41888;44.696;10.522;2024-03-23T13:06:15;5.38;;;1.77;;
56005;SDS011;41888;44.696;10.522;2024-03-23T13:08:47;3.47;;;1.30;;
56005;SDS011;41888;44.696;10.522;2024-03-23T13:11:15;3.80;;;1.20;;
56005;SDS011;41888;44.696;10.522;2024-03-23T13:13:41;5.25;;;1.40;;
56005;SDS011;41888;44.696;10.522;2024-03-23T13:16:07;3.55;;;1.58;;
56005;SDS011;41888;44.696;10.522;2024-03-23T13:18:33;5.20;;;2.42;;
56005;SDS011;41888;44.696;10.522;2024-03-23T13:21:00;3.60;;;1.17;;
56005;SDS011;41888;44.696;10.522;2024-03-23T13:23:26;3.80;;;1.50;;
56005;SDS011;41888;44.696;10.522;2024-03-23T13:25:52;3.40;;;1.10;;
56005;SDS011;41888;44.696;10.522;2024-03-23T13:28:20;1.77;;;0.90;;
56005;SDS011;41888;44.696;10.522;2024-03-23T13:30:50;3.45;;;1.35;;
56005;SDS011;41888;44.696;10.522;2024-03-23T13:33:19;2.80;;;0.98;;
56005;SDS011;41888;44.696;10.522;2024-03-23T13:35:49;2.40;;;0.88;;
56005;SDS011;41888;44.696;10.522;2024-03-23T13:38:20;2.75;;;0.70;;
56005;SDS011;41888;44.696;10.522;2024-03-23T13:41:04;1.67;;;1.00;;
56005;SDS011;41888;44.696;10.522;2024-03-23T13:43:31;2.78;;;0.93;;
56005;SDS011;41888;44.696;10.522;2024-03-23T13:45:58;5.47;;;0.85;;
56005;SDS011;41888;44.696;10.522;2024-03-23T13:48:26;1.48;;;0.70;;
56005;SDS011;41888;44.696;10.522;2024-03-23T13:51:01;2.58;;;0.90;;
56005;SDS011;41888;44.696;10.522;2024-03-23T13:55:54;4.72;;;1.50;;
56005;SDS011;41888;44.696;10.522;2024-03-23T13:58:20;2.97;;;0.90;;
56005;SDS011;41888;44.696;10.522;2024-03-23T14:00:48;7.53;;;1.35;;
56005;SDS011;41888;44.696;10.522;2024-03-23T14:03:14;3.45;;;1.00;;
56005;SDS011;41888;44.696;10.522;2024-03-23T14:05:41;2.42;;;1.23;;
56005;SDS011;41888;44.696;10.522;2024-03-23T14:08:07;3.17;;;1.10;;
56005;SDS011;41888;44.696;10.522;2024-03-23T14:10:34;2.60;;;0.90;;
56005;SDS011;41888;44.696;10.522;2024-03-23T14:13:01;4.68;;;1.70;;
56005;SDS011;41888;44.696;10.522;2024-03-23T14:15:30;8.00;;;1.50;;
56005;SDS011;41888;44.696;10.522;2024-03-23T14:17:57;2.78;;;1.00;;
56005;SDS011;41888;44.696;10.522;2024-03-23T14:20:23;4.25;;;1.00;;
56005;SDS011;41888;44.696;10.522;2024-03-23T14:22:50;4.32;;;1.58;;
56005;SDS011;41888;44.696;10.522;2024-03-23T14:25:17;3.15;;;1.52;;
56005;SDS011;41888;44.696;10.522;2024-03-23T14:27:44;3.85;;;1.20;;
56005;SDS011;41888;44.696;10.522;2024-03-23T14:30:10;4.00;;;1.48;;
56005;SDS011;41888;44.696;10.522;2024-03-23T14:32:37;3.75;;;1.85;;
56005;SDS011;41888;44.696;10.522;2024-03-23T14:35:04;2.15;;;1.23;;
56005;SDS011;41888;44.696;10.522;2024-03-23T14:37:36;6.63;;;1.60;;
56005;SDS011;41888;44.696;10.522;2024-03-23T14:40:07;4.10;;;1.17;;
56005;SDS011;41888;44.696;10.522;2024-03-23T14:42:33;3.28;;;1.48;;
56005;SDS011;41888;44.696;10.522;2024-03-23T14:45:00;4.72;;;1.70;;
56005;SDS011;41888;44.696;10.522;2024-03-23T14:47:26;6.53;;;1.33;;
56005;SDS011;41888;44.696;10.522;2024-03-23T14:49:52;4.10;;;1.13;;
56005;SDS011;41888;44.696;10.522;2024-03-23T14:52:18;8.35;;;1.40;;
56005;SDS011;41888;44.696;10.522;2024-03-23T14:54:45;6.68;;;1.33;;
56005;SDS011;41888;44.696;10.522;2024-03-23T14:57:12;7.82;;;1.38;;
56005;SDS011;41888;44.696;10.522;2024-03-23T14:59:38;3.97;;;1.10;;
56005;SDS011;41888;44.696;10.522;2024-03-23T15:02:05;3.72;;;1.10;;
56005;SDS011;41888;44.696;10.522;2024-03-23T15:04:32;4.60;;;1.20;;
56005;SDS011;41888;44.696;10.522;2024-03-23T15:06:59;4.18;;;1.20;;
56005;SDS011;41888;44.696;10.522;2024-03-23T15:09:25;2.85;;;0.80;;
56005;SDS011;41888;44.696;10.522;2024-03-23T15:11:51;4.03;;;0.82;;
56005;SDS011;41888;44.696;10.522;2024-03-23T15:14:19;4.68;;;0.70;;
56005;SDS011;41888;44.696;10.522;2024-03-23T15:16:46;3.55;;;1.10;;
56005;SDS011;41888;44.696;10.522;2024-03-23T15:19:14;3.53;;;1.00;;
56005;SDS011;41888;44.696;10.522;2024-03-23T15:21:42;2.85;;;0.70;;
56005;SDS011;41888;44.696;10.522;2024-03-23T15:24:09;2.58;;;0.77;;
56005;SDS011;41888;44.696;10.522;2024-03-23T15:26:38;4.55;;;0.88;;
56005;SDS011;41888;44.696;10.522;2024-03-23T15:29:05;5.32;;;1.27;;
56005;SDS011;41888;44.696;10.522;2024-03-23T15:31:41;2.40;;;0.90;;
56005;SDS011;41888;44.696;10.522;2024-03-23T15:34:08;2.47;;;1.23;;
56005;SDS011;41888;44.696;10.522;2024-03-23T15:36:37;2.88;;;0.95;;
56005;SDS011;41888;44.696;10.522;2024-03-23T15:39:04;3.33;;;0.85;;
56005;SDS011;41888;44.696;10.522;2024-03-23T15:41:31;3.63;;;1.00;;